Strona główna
METAR-TAF:

METAR-TAF

Lotnisko :

Port lotniczy Sukhothai

Sukhothai, Tajlandia

Szerokość geograficzna: 17-14-16N, Długość geograficzna: 099-49-05E, wysokość: 55 m

Aktualna obserwacja pogody

Raport powstał 6 godziny i 6 minut temu, godzina 10:00 UTC
Wiatr 5 kt od południe
Temperatura 33°C
Wilgotność 17%
Ciśnienie 1006 hPa
Widzialność 10 km lub więcej
Brak chmur poniżej 1500 m i brak chmur cumulonimbus

METAR: VTPO 261000Z 18005KT CAVOK 33/05 Q1006 NOSIG

czas: 23:06 (16:06 UTC)

Prognoza

Raport powstał 5 godziny i 6 minut temu, godzina 11:00 UTC
Prognoza ważna od 26 godzina 12 UTC do 27 godzina 12 UTC
Wiatr 5 kt od południe
Widzialność 10 km lub więcej
Brak chmur poniżej 1500 m i brak chmur cumulonimbus

TAF: VTPO 261100Z 2612/2712 18005KT CAVOK

Obserwacja i prognoza pogody dla ponad 4000 lotnisk (raport METAR i TAF).

Dostępne stacje oznaczono żółtymi i czerwonymi punktami na mapie.

Najedź kursorem aby zobaczyć nazwę stacji.

Kliknij aby zobaczyć obserwacje i prognozy pogody.

Aby zmienić mapę: kliknij na zielony przycisk z czarnym krzyżykiem, aby powiększyć; na zielony przycisk z myślnikiem, aby pomniejszyć; na zielone strzałki, aby przejść do map sąsiednich.


METAR-TAF: